createdAt,value
2023-05-10T00:01:00.029Z,79.53
2023-05-10T00:03:27.192Z,79.63
2023-05-10T00:05:54.232Z,80.47
2023-05-10T00:08:21.454Z,80.90
2023-05-10T00:10:48.568Z,80.87
2023-05-10T00:13:15.729Z,81.10
2023-05-10T00:15:42.526Z,80.38
2023-05-10T00:18:09.501Z,78.00
2023-05-10T00:20:36.297Z,77.24
2023-05-10T00:23:02.986Z,77.08
2023-05-10T00:25:29.951Z,77.83
2023-05-10T00:27:57.666Z,77.23
2023-05-10T00:30:24.652Z,76.52
2023-05-10T00:32:52.192Z,76.04
2023-05-10T00:35:19.108Z,76.06
2023-05-10T00:37:45.932Z,76.04
2023-05-10T00:40:13.272Z,77.04
2023-05-10T00:42:41.329Z,77.87
2023-05-10T00:45:08.562Z,78.54
2023-05-10T00:47:36.808Z,79.14
2023-05-10T00:50:03.793Z,79.73
2023-05-10T00:52:31.093Z,80.10
2023-05-10T00:54:58.869Z,79.13
2023-05-10T00:57:25.691Z,79.86
2023-05-10T00:59:52.635Z,79.35
2023-05-10T01:02:19.505Z,79.66
2023-05-10T01:04:46.797Z,80.02
2023-05-10T01:07:13.721Z,79.97
2023-05-10T01:09:40.557Z,80.55
2023-05-10T01:12:07.633Z,81.47
2023-05-10T01:14:36.715Z,81.86
2023-05-10T01:17:04.329Z,82.42
2023-05-10T01:19:33.294Z,83.31
2023-05-10T01:22:32.225Z,84.12
2023-05-10T01:25:12.295Z,84.76
2023-05-10T01:27:51.851Z,85.67
2023-05-10T01:30:44.097Z,86.43
2023-05-10T01:33:45.607Z,86.96
2023-05-10T01:36:40.603Z,86.83
2023-05-10T01:39:28.585Z,86.41
2023-05-10T01:41:55.649Z,86.08
2023-05-10T01:44:27.498Z,86.12
2023-05-10T01:46:58.949Z,86.07
2023-05-10T01:49:40.952Z,85.65
2023-05-10T01:52:10.830Z,84.87
2023-05-10T01:54:39.539Z,84.89
2023-05-10T01:57:07.881Z,85.15
2023-05-10T01:59:41.127Z,85.41
2023-05-10T02:02:08.363Z,85.55
2023-05-10T02:04:35.979Z,86.27
2023-05-10T02:07:02.777Z,87.21
2023-05-10T02:09:30.429Z,88.13
2023-05-10T02:11:57.910Z,88.59
2023-05-10T02:14:27.324Z,88.87
2023-05-10T02:16:54.442Z,88.89
2023-05-10T02:19:21.289Z,89.27
2023-05-10T02:21:48.102Z,89.28
2023-05-10T02:24:16.054Z,89.47
2023-05-10T02:26:42.847Z,89.35
2023-05-10T02:29:09.628Z,89.45
2023-05-10T02:31:39.283Z,89.48
2023-05-10T02:34:06.710Z,90.04
2023-05-10T02:36:33.908Z,90.21
2023-05-10T02:39:00.997Z,90.49
2023-05-10T02:41:28.170Z,90.56
2023-05-10T02:43:56.702Z,90.54
2023-05-10T02:46:25.423Z,90.52
2023-05-10T02:48:52.431Z,90.63
2023-05-10T02:51:19.492Z,90.56
2023-05-10T02:53:47.211Z,90.83
2023-05-10T02:56:43.629Z,91.36
2023-05-10T02:59:10.471Z,91.38
2023-05-10T03:01:37.398Z,91.54
2023-05-10T03:04:04.470Z,91.61
2023-05-10T03:06:32.037Z,91.48
2023-05-10T03:08:58.889Z,91.15
2023-05-10T03:11:51.996Z,90.88
2023-05-10T03:14:30.549Z,89.92
2023-05-10T03:17:01.456Z,89.79
2023-05-10T03:19:33.480Z,89.71
2023-05-10T03:22:02.895Z,89.76
2023-05-10T03:24:30.639Z,89.80
2023-05-10T03:26:59.609Z,89.77
2023-05-10T03:29:26.502Z,89.49
2023-05-10T03:31:53.659Z,88.84
2023-05-10T03:34:24.614Z,89.42
2023-05-10T03:36:52.051Z,89.60
2023-05-10T03:39:18.977Z,89.92
2023-05-10T03:41:49.357Z,89.80
2023-05-10T03:44:16.894Z,89.68
2023-05-10T03:46:44.522Z,89.64
2023-05-10T03:49:11.486Z,89.57
2023-05-10T03:51:38.320Z,89.41
2023-05-10T03:54:05.344Z,89.77
2023-05-10T03:56:33.055Z,90.13
2023-05-10T03:59:01.122Z,90.49
2023-05-10T04:01:27.854Z,90.50
2023-05-10T04:03:54.964Z,90.36
2023-05-10T04:06:21.817Z,90.27
2023-05-10T04:08:48.727Z,90.00
2023-05-10T04:11:15.785Z,89.95
2023-05-10T04:13:43.496Z,89.57
2023-05-10T04:16:10.777Z,89.40
2023-05-10T04:18:37.627Z,88.00
2023-05-10T04:21:04.397Z,87.28
2023-05-10T04:23:31.139Z,84.34
2023-05-10T04:26:02.240Z,81.92
2023-05-10T04:28:29.318Z,81.07
2023-05-10T04:31:09.831Z,79.53
2023-05-10T04:33:37.416Z,78.11
2023-05-10T04:36:04.629Z,77.29
2023-05-10T04:38:32.229Z,75.11
2023-05-10T04:41:09.608Z,73.39
2023-05-10T04:43:36.597Z,71.96
2023-05-10T04:46:04.163Z,70.93
2023-05-10T04:48:31.057Z,67.35
2023-05-10T04:52:10.266Z,64.45
2023-05-10T04:54:37.804Z,62.48
2023-05-10T04:57:04.832Z,59.30
2023-05-10T04:59:31.800Z,58.84
2023-05-10T05:01:59.743Z,58.57
2023-05-10T05:04:26.954Z,58.01
2023-05-10T05:06:54.199Z,55.59
2023-05-10T05:09:21.389Z,53.65
2023-05-10T05:11:48.370Z,52.60
2023-05-10T05:14:15.422Z,51.24
2023-05-10T05:16:42.539Z,49.62
2023-05-10T05:19:09.472Z,47.68
2023-05-10T05:21:36.726Z,46.26
2023-05-10T05:24:04.045Z,46.36
2023-05-10T05:26:31.064Z,46.30
2023-05-10T05:28:58.004Z,44.99
2023-05-10T05:31:25.156Z,44.98
2023-05-10T05:33:52.409Z,45.18
2023-05-10T05:36:19.429Z,45.23
2023-05-10T05:38:46.483Z,45.25
2023-05-10T05:41:13.500Z,44.43
2023-05-10T05:43:40.506Z,42.84
2023-05-10T05:46:07.569Z,41.63
2023-05-10T05:48:34.547Z,41.44
2023-05-10T05:51:01.699Z,41.38
2023-05-10T05:53:29.329Z,39.84
2023-05-10T05:55:57.496Z,39.91
2023-05-10T05:58:25.506Z,39.39
2023-05-10T06:00:53.141Z,39.63
2023-05-10T06:03:20.343Z,40.13
2023-05-10T06:05:47.612Z,40.18
2023-05-10T06:08:14.917Z,40.34
2023-05-10T06:10:41.834Z,41.85
2023-05-10T06:13:09.087Z,42.08
2023-05-10T06:15:36.221Z,40.58
2023-05-10T06:18:03.531Z,40.36
2023-05-10T06:20:35.081Z,39.67
2023-05-10T06:23:02.158Z,39.85
2023-05-10T06:25:29.099Z,39.92
2023-05-10T06:27:58.895Z,38.71
2023-05-10T06:30:30.199Z,38.45
2023-05-10T06:32:57.748Z,38.81
2023-05-10T06:35:25.309Z,39.32
2023-05-10T06:37:52.677Z,39.40
2023-05-10T06:40:19.988Z,39.73
2023-05-10T06:42:48.676Z,39.12
2023-05-10T06:45:16.623Z,39.04
2023-05-10T06:47:44.061Z,38.00
2023-05-10T06:50:12.586Z,37.60
2023-05-10T06:52:39.886Z,37.75
2023-05-10T06:55:12.168Z,36.86
2023-05-10T06:57:39.176Z,35.93
2023-05-10T07:00:06.980Z,35.52
2023-05-10T07:02:34.106Z,36.23
2023-05-10T07:05:03.133Z,35.86
2023-05-10T07:07:31.202Z,35.42
2023-05-10T07:09:59.486Z,36.05
2023-05-10T07:12:27.813Z,36.13
2023-05-10T07:14:55.766Z,36.32
2023-05-10T07:17:24.941Z,36.23
2023-05-10T07:19:56.455Z,36.20
2023-05-10T07:22:23.911Z,35.55
2023-05-10T07:24:51.349Z,35.39
2023-05-10T07:27:18.467Z,35.67
2023-05-10T07:29:46.120Z,36.33
2023-05-10T07:32:13.884Z,36.16
2023-05-10T07:34:41.484Z,36.16
2023-05-10T07:37:08.592Z,35.94
2023-05-10T07:39:35.671Z,35.63
2023-05-10T07:42:04.002Z,34.87
2023-05-10T07:44:31.099Z,34.50
2023-05-10T07:46:58.845Z,34.81
2023-05-10T07:49:26.841Z,34.57
2023-05-10T07:51:55.365Z,35.14
2023-05-10T07:54:22.884Z,36.45
2023-05-10T07:56:53.168Z,37.13
2023-05-10T07:59:25.935Z,37.37
2023-05-10T08:02:08.171Z,37.59
2023-05-10T08:04:51.009Z,37.11
2023-05-10T08:07:20.208Z,37.27
2023-05-10T08:09:53.420Z,37.74
2023-05-10T08:12:34.416Z,38.33
2023-05-10T08:15:15.611Z,38.63
2023-05-10T08:24:18.877Z,37.97
2023-05-10T08:26:47.135Z,38.20
2023-05-10T08:29:17.287Z,38.06
2023-05-10T08:31:44.340Z,38.35
2023-05-10T08:34:11.581Z,38.97
2023-05-10T08:36:38.687Z,39.59
2023-05-10T08:39:07.736Z,39.73
2023-05-10T08:41:38.519Z,39.52
2023-05-10T08:44:06.770Z,38.75
2023-05-10T08:46:36.075Z,38.61
2023-05-10T08:49:04.345Z,38.43
2023-05-10T08:51:33.264Z,38.28
2023-05-10T08:54:03.864Z,37.98
2023-05-10T08:56:31.053Z,37.46
2023-05-10T08:58:58.222Z,37.61
2023-05-10T09:01:25.336Z,37.22
2023-05-10T09:03:52.793Z,36.99
2023-05-10T09:06:20.072Z,37.38
2023-05-10T09:08:47.129Z,37.90
2023-05-10T09:11:14.494Z,38.28
2023-05-10T09:13:41.492Z,40.95
2023-05-10T09:16:20.591Z,43.83
2023-05-10T09:18:50.792Z,47.64
2023-05-10T09:21:18.508Z,48.62
2023-05-10T09:23:51.274Z,45.22
2023-05-10T09:26:18.914Z,43.63
2023-05-10T09:28:53.856Z,44.42
2023-05-10T09:31:21.513Z,45.28
2023-05-10T09:33:49.809Z,44.09
2023-05-10T09:36:19.977Z,43.57
2023-05-10T09:38:52.973Z,43.25
2023-05-10T09:41:21.809Z,43.33
2023-05-10T09:43:48.977Z,43.47
2023-05-10T09:46:17.407Z,43.20
2023-05-10T09:48:55.812Z,42.46
2023-05-10T09:51:25.259Z,42.68
2023-05-10T09:54:12.884Z,44.25
2023-05-10T09:56:41.583Z,43.49
2023-05-10T09:59:12.084Z,42.80
2023-05-10T10:01:39.849Z,41.91
2023-05-10T10:04:08.536Z,41.55
2023-05-10T10:06:39.604Z,41.72
2023-05-10T10:09:07.681Z,40.85
2023-05-10T10:11:40.129Z,39.56
2023-05-10T10:14:07.449Z,39.55
2023-05-10T10:16:34.570Z,38.44
2023-05-10T10:19:01.894Z,38.54
2023-05-10T10:21:29.146Z,38.23
2023-05-10T10:23:57.132Z,37.62
2023-05-10T10:26:24.094Z,37.13
2023-05-10T10:29:21.309Z,35.13
2023-05-10T10:32:12.810Z,35.21
2023-05-10T10:34:39.926Z,35.80
2023-05-10T10:37:07.690Z,35.06
2023-05-10T10:39:37.843Z,34.80
2023-05-10T10:42:05.461Z,34.99
2023-05-10T10:44:37.846Z,35.49
2023-05-10T10:47:24.359Z,37.70
2023-05-10T10:50:03.920Z,39.39
2023-05-10T10:52:44.285Z,38.71
2023-05-10T10:55:16.461Z,39.50
2023-05-10T10:57:52.877Z,40.25
2023-05-10T11:00:21.450Z,39.34
2023-05-10T11:02:52.738Z,39.61
2023-05-10T11:05:26.297Z,40.51
2023-05-10T11:07:58.095Z,40.73
2023-05-10T11:10:26.050Z,41.51
2023-05-10T11:13:10.372Z,42.12
2023-05-10T11:15:40.108Z,42.22
2023-05-10T11:18:20.685Z,41.40
2023-05-10T11:21:01.450Z,41.92
2023-05-10T11:23:58.625Z,41.89
2023-05-10T11:26:36.321Z,40.78
2023-05-10T11:29:04.503Z,39.57
2023-05-10T11:31:32.460Z,39.04
2023-05-10T11:34:05.132Z,39.51
2023-05-10T11:36:36.242Z,39.50
2023-05-10T11:39:13.061Z,39.08
2023-05-10T11:41:42.847Z,37.90
2023-05-10T11:44:10.494Z,37.50
2023-05-10T11:46:38.420Z,35.62
2023-05-10T11:49:08.463Z,35.51
2023-05-10T11:51:37.188Z,35.78
2023-05-10T11:54:09.595Z,35.70
2023-05-10T11:56:38.154Z,35.05
2023-05-10T11:59:05.226Z,34.60
2023-05-10T12:01:32.226Z,34.75
2023-05-10T12:04:01.597Z,34.17
2023-05-10T12:06:30.847Z,34.22
2023-05-10T12:08:58.067Z,35.07
2023-05-10T12:11:30.234Z,34.24
2023-05-10T12:13:57.774Z,33.57
2023-05-10T12:16:27.123Z,33.64
2023-05-10T12:19:00.061Z,33.47
2023-05-10T12:21:27.435Z,32.92
2023-05-10T12:23:58.575Z,32.88
2023-05-10T12:26:27.604Z,33.74
2023-05-10T12:28:55.405Z,33.22
2023-05-10T12:31:22.452Z,33.46
2023-05-10T12:33:50.534Z,33.45
2023-05-10T12:36:17.771Z,33.07
2023-05-10T12:38:49.124Z,33.39
2023-05-10T12:41:17.694Z,33.37
2023-05-10T12:43:44.953Z,33.48
2023-05-10T12:46:18.426Z,33.22
2023-05-10T12:48:47.387Z,33.56
2023-05-10T12:51:16.886Z,33.07
2023-05-10T12:53:46.109Z,33.27
2023-05-10T12:56:14.426Z,32.88
2023-05-10T12:58:41.570Z,33.24
2023-05-10T13:01:09.612Z,33.56
2023-05-10T13:03:36.930Z,32.95
2023-05-10T13:06:03.984Z,33.21
2023-05-10T13:08:34.744Z,33.43
2023-05-10T13:11:02.898Z,33.72
2023-05-10T13:13:30.005Z,33.65
2023-05-10T13:15:57.019Z,33.92
2023-05-10T13:18:25.504Z,34.56
2023-05-10T13:20:52.598Z,35.15
2023-05-10T13:23:19.712Z,35.81
2023-05-10T13:25:49.232Z,36.55
2023-05-10T13:28:16.409Z,37.38
2023-05-10T13:30:43.819Z,38.31
2023-05-10T13:33:11.143Z,38.26
2023-05-10T13:35:38.226Z,38.52
2023-05-10T13:38:05.444Z,38.60
2023-05-10T13:40:32.576Z,38.67
2023-05-10T13:43:00.463Z,38.60
2023-05-10T13:45:27.572Z,38.81
2023-05-10T13:47:54.832Z,38.32
2023-05-10T13:50:22.699Z,38.16
2023-05-10T13:52:50.007Z,39.42
2023-05-10T13:58:07.923Z,38.40
2023-05-10T14:00:36.901Z,38.24
2023-05-10T14:03:06.194Z,37.55
2023-05-10T14:05:33.928Z,37.92
2023-05-10T14:08:01.516Z,37.89
2023-05-10T14:10:28.788Z,38.08
2023-05-10T14:12:55.921Z,39.22
2023-05-10T14:15:23.581Z,39.32
2023-05-10T14:17:50.836Z,39.24
2023-05-10T14:20:17.856Z,39.01
2023-05-10T14:22:44.935Z,39.14
2023-05-10T14:25:12.562Z,39.21
2023-05-10T14:27:39.506Z,39.75
2023-05-10T14:30:07.252Z,38.90
2023-05-10T14:32:35.190Z,39.06
2023-05-10T14:35:02.187Z,38.59
2023-05-10T14:37:29.224Z,38.15
2023-05-10T14:39:56.196Z,37.40
2023-05-10T14:42:23.233Z,38.22
2023-05-10T14:44:50.421Z,38.07
2023-05-10T14:47:17.359Z,38.06
2023-05-10T14:49:44.350Z,38.80
2023-05-10T14:52:15.512Z,38.93
2023-05-10T14:54:42.748Z,38.31
2023-05-10T14:57:09.862Z,38.45
2023-05-10T14:59:37.056Z,39.09
2023-05-10T15:02:05.468Z,39.57
2023-05-10T15:04:33.314Z,39.86
2023-05-10T15:07:01.775Z,39.70
2023-05-10T15:09:28.921Z,39.18
2023-05-10T15:11:56.426Z,39.35
2023-05-10T15:14:24.135Z,39.64
2023-05-10T15:16:51.306Z,40.26
2023-05-10T15:19:18.347Z,40.92
2023-05-10T15:21:45.850Z,41.11
2023-05-10T15:24:12.778Z,41.02
2023-05-10T15:26:39.741Z,41.36
2023-05-10T15:29:06.865Z,40.43
2023-05-10T15:31:36.281Z,40.21
2023-05-10T15:34:03.403Z,39.45
2023-05-10T15:36:30.385Z,39.53
2023-05-10T15:38:57.365Z,40.41
2023-05-10T15:41:24.910Z,40.87
2023-05-10T15:43:51.972Z,40.24
2023-05-10T15:46:19.099Z,39.92
2023-05-10T15:48:46.204Z,40.20
2023-05-10T15:51:13.447Z,40.55
2023-05-10T15:53:49.496Z,40.55
2023-05-10T15:56:23.931Z,40.44
2023-05-10T15:58:51.483Z,39.88
2023-05-10T16:01:18.613Z,40.28
2023-05-10T16:03:45.920Z,40.44
2023-05-10T16:06:12.864Z,39.67
2023-05-10T16:08:39.888Z,39.53
2023-05-10T16:11:07.786Z,39.34
2023-05-10T16:13:34.955Z,38.92
2023-05-10T16:16:02.041Z,38.65
2023-05-10T16:18:29.244Z,38.95
2023-05-10T16:20:56.263Z,39.66
2023-05-10T16:23:23.247Z,40.48
2023-05-10T16:25:50.570Z,40.69
2023-05-10T16:28:18.562Z,41.98
2023-05-10T16:30:47.520Z,43.17
2023-05-10T16:33:14.789Z,43.59
2023-05-10T16:35:41.712Z,44.98
2023-05-10T16:38:08.703Z,45.50
2023-05-10T16:40:35.854Z,45.67
2023-05-10T16:43:02.767Z,46.54
2023-05-10T16:45:32.264Z,46.70
2023-05-10T16:47:59.410Z,47.01
2023-05-10T16:50:26.407Z,47.15
2023-05-10T16:52:53.297Z,47.82
2023-05-10T16:55:20.857Z,49.62
2023-05-10T16:57:49.671Z,49.02
2023-05-10T17:00:17.168Z,48.89
2023-05-10T17:02:44.299Z,49.26
2023-05-10T17:05:11.630Z,49.12
2023-05-10T17:08:54.504Z,49.42
2023-05-10T17:11:21.952Z,50.13
2023-05-10T17:13:49.085Z,50.91
2023-05-10T17:16:16.182Z,51.32
2023-05-10T17:18:45.238Z,52.55
2023-05-10T17:21:12.310Z,53.92
2023-05-10T17:23:39.178Z,55.38
2023-05-10T17:26:06.269Z,58.26
2023-05-10T17:28:33.498Z,60.30
2023-05-10T17:31:02.468Z,61.29
2023-05-10T17:33:29.741Z,63.91
2023-05-10T17:35:57.640Z,65.04
2023-05-10T17:38:24.938Z,66.59
2023-05-10T17:40:51.885Z,66.27
2023-05-10T17:43:19.698Z,66.55
2023-05-10T17:45:49.816Z,68.15
2023-05-10T17:48:17.265Z,69.68
2023-05-10T17:50:44.641Z,70.30
2023-05-10T17:53:11.465Z,71.41
2023-05-10T17:55:41.642Z,71.32
2023-05-10T17:58:10.609Z,70.82
2023-05-10T18:00:38.683Z,71.19
2023-05-10T18:03:05.677Z,71.39
2023-05-10T18:05:37.168Z,71.42
2023-05-10T18:08:04.978Z,72.91
2023-05-10T18:10:32.080Z,74.17
2023-05-10T18:13:00.034Z,75.45
2023-05-10T18:15:27.585Z,75.91
2023-05-10T18:17:56.148Z,76.58
2023-05-10T18:20:23.044Z,76.90
2023-05-10T18:22:51.481Z,78.20
2023-05-10T18:25:19.587Z,79.08
2023-05-10T18:27:47.232Z,79.51
2023-05-10T18:30:14.337Z,79.63
2023-05-10T18:32:42.488Z,79.74
2023-05-10T18:35:10.663Z,79.72
2023-05-10T18:37:39.479Z,79.26
2023-05-10T18:40:13.976Z,78.77
2023-05-10T18:42:46.937Z,78.43
2023-05-10T18:45:23.074Z,78.38
2023-05-10T18:47:51.010Z,77.95
2023-05-10T18:50:19.821Z,77.77
2023-05-10T18:52:46.945Z,77.86
2023-05-10T18:55:14.101Z,77.98
2023-05-10T18:57:41.518Z,78.16
2023-05-10T19:00:09.984Z,78.33
2023-05-10T19:02:40.417Z,78.74
2023-05-10T19:05:08.256Z,79.26
2023-05-10T19:07:36.494Z,79.37
2023-05-10T19:10:03.639Z,79.36
2023-05-10T19:12:31.350Z,79.99
2023-05-10T19:14:58.368Z,80.74
2023-05-10T19:17:27.281Z,81.11
2023-05-10T19:19:56.919Z,81.49
2023-05-10T19:22:43.570Z,81.85
2023-05-10T19:25:16.747Z,82.25
2023-05-10T19:27:43.892Z,82.81
2023-05-10T19:30:11.419Z,83.37
2023-05-10T19:32:39.590Z,83.74
2023-05-10T19:35:06.905Z,83.76
2023-05-10T19:37:34.595Z,83.39
2023-05-10T19:40:01.679Z,82.78
2023-05-10T19:42:29.017Z,81.91
2023-05-10T19:44:55.935Z,81.15
2023-05-10T19:47:22.957Z,81.28
2023-05-10T19:49:49.893Z,81.31
2023-05-10T19:52:16.899Z,81.69
2023-05-10T19:54:44.318Z,82.26
2023-05-10T19:57:12.168Z,82.56
2023-05-10T19:59:41.070Z,83.03
2023-05-10T20:02:07.976Z,83.33
2023-05-10T20:04:34.805Z,83.81
2023-05-10T20:07:01.643Z,83.93
2023-05-10T20:09:28.589Z,83.86
2023-05-10T20:12:01.795Z,83.96
2023-05-10T20:14:29.490Z,84.11
2023-05-10T20:16:57.334Z,83.94
2023-05-10T20:19:25.187Z,83.62
2023-05-10T20:21:52.093Z,83.45
2023-05-10T20:24:18.931Z,83.44
2023-05-10T20:26:46.792Z,83.55
2023-05-10T20:29:13.632Z,83.36
2023-05-10T20:31:40.648Z,83.42
2023-05-10T20:34:07.402Z,83.74
2023-05-10T20:36:34.371Z,83.81
2023-05-10T20:39:01.173Z,83.78
2023-05-10T20:41:28.469Z,84.04
2023-05-10T20:43:55.290Z,84.52
2023-05-10T20:46:22.660Z,85.06
2023-05-10T20:48:49.509Z,85.35
2023-05-10T20:51:16.353Z,85.40
2023-05-10T20:53:43.200Z,84.89
2023-05-10T20:56:10.152Z,85.21
2023-05-10T20:58:36.906Z,85.52
2023-05-10T21:01:04.436Z,85.60
2023-05-10T21:03:31.604Z,85.42
2023-05-10T21:05:58.406Z,85.65
2023-05-10T21:08:25.452Z,85.53
2023-05-10T21:10:53.068Z,85.45
2023-05-10T21:13:20.179Z,85.68
2023-05-10T21:15:47.409Z,85.33
2023-05-10T21:18:14.209Z,85.84
2023-05-10T21:20:41.235Z,85.92
2023-05-10T21:23:08.197Z,86.01
2023-05-10T21:25:35.773Z,86.35
2023-05-10T21:28:02.593Z,86.58
2023-05-10T21:30:29.583Z,86.77
2023-05-10T21:32:59.010Z,86.87
2023-05-10T21:35:25.889Z,86.95
2023-05-10T21:37:53.311Z,86.74
2023-05-10T21:40:20.437Z,86.58
2023-05-10T21:42:51.971Z,86.20
2023-05-10T21:45:19.159Z,86.13
2023-05-10T21:47:46.183Z,86.03
2023-05-10T21:50:13.250Z,86.16
2023-05-10T21:52:40.352Z,86.22
2023-05-10T21:55:08.012Z,86.38
2023-05-10T21:57:35.907Z,86.48
2023-05-10T22:00:03.135Z,86.78
2023-05-10T22:02:31.576Z,86.90
2023-05-10T22:04:58.608Z,87.12
2023-05-10T22:07:25.923Z,87.30
2023-05-10T22:09:52.689Z,87.36
2023-05-10T22:12:19.919Z,87.23
2023-05-10T22:14:48.645Z,87.11
2023-05-10T22:17:18.617Z,87.01
2023-05-10T22:19:45.418Z,87.15
2023-05-10T22:22:12.316Z,87.04
2023-05-10T22:24:39.081Z,87.00
2023-05-10T22:27:06.371Z,87.15
2023-05-10T22:29:33.420Z,87.26
2023-05-10T22:32:04.982Z,87.79
2023-05-10T22:34:32.361Z,87.96
2023-05-10T22:36:59.234Z,88.11
2023-05-10T22:39:26.515Z,88.26
2023-05-10T22:41:53.480Z,87.74
2023-05-10T22:44:20.563Z,87.04
2023-05-10T22:46:47.496Z,86.30
2023-05-10T22:49:14.308Z,85.29
2023-05-10T22:51:41.436Z,85.53
2023-05-10T22:54:08.314Z,86.05
2023-05-10T22:56:35.274Z,85.75
2023-05-10T22:59:02.683Z,85.83
2023-05-10T23:01:29.697Z,85.97
2023-05-10T23:03:56.776Z,86.30
2023-05-10T23:06:23.956Z,87.02
2023-05-10T23:08:51.498Z,87.24
2023-05-10T23:11:18.314Z,87.39
2023-05-10T23:13:45.403Z,87.10
2023-05-10T23:16:12.786Z,87.10
2023-05-10T23:18:41.937Z,87.25
2023-05-10T23:21:08.931Z,87.54
2023-05-10T23:23:36.740Z,87.74
2023-05-10T23:26:04.937Z,87.85
2023-05-10T23:28:32.203Z,87.83
2023-05-10T23:30:59.276Z,87.70
2023-05-10T23:33:28.825Z,87.69
2023-05-10T23:35:56.018Z,88.00
2023-05-10T23:38:22.915Z,88.32
2023-05-10T23:40:50.007Z,87.84
2023-05-10T23:43:19.084Z,87.66
2023-05-10T23:45:55.432Z,87.83
2023-05-10T23:48:22.400Z,88.00
2023-05-10T23:50:49.288Z,88.14
2023-05-10T23:53:16.149Z,88.26
2023-05-10T23:55:43.122Z,88.05
2023-05-10T23:58:10.348Z,88.07
